Time;durP1;ratioP1;P1;durP2;ratioP2;P2;SDS_P1;SDS_P2;PMS_P1;PMS_P2;Temp;Humidity;BMP_temperature;BMP_pressure;BME280_temperature;BME280_humidity;BME280_pressure;Samples;Min_cycle;Max_cycle;Signal;HPM_P1;HPM_P2
2024/01/01 00:00:13;;;;;;;18.48;9.82;;;7.70;93.70;;;;;;5079933;28;20043;-78
2024/01/01 00:02:39;;;;;;;20.52;11.95;;;7.70;93.50;;;;;;5096932;28;20039;-80
2024/01/01 00:05:06;;;;;;;13.18;6.05;;;7.60;93.30;;;;;;5097289;28;20050;-78
2024/01/01 00:07:31;;;;;;;14.48;6.47;;;7.70;92.50;;;;;;5114582;28;20392;-80
2024/01/01 00:09:57;;;;;;;18.60;10.20;;;7.70;91.70;;;;;;5096254;28;20035;-80
2024/01/01 00:12:23;;;;;;;8.95;5.00;;;7.60;91.30;;;;;;5113720;28;20039;-78
2024/01/01 00:14:49;;;;;;;10.20;3.58;;;7.60;90.80;;;;;;5096350;28;20036;-79
2024/01/01 00:17:14;;;;;;;8.07;3.35;;;7.60;91.10;;;;;;5113722;28;20042;-78
2024/01/01 00:19:41;;;;;;;9.25;3.22;;;7.60;91.10;;;;;;5113575;28;20042;-79
2024/01/01 00:22:06;;;;;;;8.02;2.63;;;7.60;90.90;;;;;;5113391;28;20036;-79
2024/01/01 00:24:32;;;;;;;7.35;2.90;;;7.50;91.00;;;;;;5113199;28;20040;-78
2024/01/01 00:26:58;;;;;;;10.68;4.63;;;7.50;90.70;;;;;;5113377;28;20071;-79
2024/01/01 00:29:26;;;;;;;11.10;4.72;;;7.50;91.00;;;;;;5095918;28;20040;-79
2024/01/01 00:31:52;;;;;;;10.50;4.85;;;7.50;91.10;;;;;;5113591;28;20126;-80
2024/01/01 00:34:19;;;;;;;8.05;3.72;;;7.50;91.10;;;;;;5113123;28;20036;-81
2024/01/01 00:36:44;;;;;;;11.95;4.53;;;7.50;91.10;;;;;;5096031;28;20044;-79
2024/01/01 00:39:10;;;;;;;8.20;3.20;;;7.50;91.30;;;;;;5112929;28;20039;-79
2024/01/01 00:41:39;;;;;;;13.05;5.25;;;7.50;91.40;;;;;;5112786;28;20126;-79
2024/01/01 00:44:04;;;;;;;11.20;4.82;;;7.50;91.70;;;;;;5095825;28;20085;-78
2024/01/01 00:46:30;;;;;;;17.40;8.93;;;7.50;91.90;;;;;;5112837;28;20080;-79
2024/01/01 00:48:56;;;;;;;9.70;4.93;;;7.50;92.50;;;;;;5112806;28;20039;-78
2024/01/01 00:51:22;;;;;;;11.60;5.40;;;7.50;92.80;;;;;;5112671;28;20035;-79
2024/01/01 00:53:48;;;;;;;12.52;7.40;;;7.40;92.70;;;;;;5112717;28;20087;-78
2024/01/01 00:56:13;;;;;;;14.52;8.82;;;7.40;93.20;;;;;;5112961;28;20035;-78
2024/01/01 00:58:39;;;;;;;24.50;12.85;;;7.40;93.10;;;;;;5095793;28;20039;-79
2024/01/01 01:01:05;;;;;;;30.15;15.68;;;7.40;93.10;;;;;;5112730;28;20035;-79
2024/01/01 01:03:31;;;;;;;27.52;17.80;;;7.40;92.90;;;;;;5112945;28;20080;-79
2024/01/01 01:05:57;;;;;;;34.08;19.50;;;7.50;93.10;;;;;;5095942;28;20088;-79
2024/01/01 01:08:23;;;;;;;37.60;21.38;;;7.50;93.10;;;;;;5095599;28;20398;-80
2024/01/01 01:10:49;;;;;;;35.40;19.80;;;7.50;93.00;;;;;;5095636;28;20043;-79
2024/01/01 01:13:15;;;;;;;44.70;28.13;;;7.50;92.90;;;;;;5095839;28;20387;-80
2024/01/01 01:15:41;;;;;;;33.80;23.15;;;7.50;92.90;;;;;;5095591;28;20040;-79
2024/01/01 01:18:06;;;;;;;47.97;28.38;;;7.60;93.10;;;;;;5095721;28;20483;-80
2024/01/01 01:20:32;;;;;;;45.40;28.38;;;7.50;93.00;;;;;;5095746;28;20043;-80
2024/01/01 01:22:58;;;;;;;49.17;28.65;;;7.60;93.10;;;;;;5099709;28;20075;-78
2024/01/01 01:25:24;;;;;;;53.22;33.40;;;7.50;93.10;;;;;;5099831;28;20079;-80
2024/01/01 01:27:50;;;;;;;47.92;33.08;;;7.50;93.10;;;;;;5100219;28;20074;-80
2024/01/01 01:30:15;;;;;;;44.00;29.33;;;7.50;93.10;;;;;;5116605;28;20139;-81
2024/01/01 01:32:41;;;;;;;49.65;35.05;;;7.50;93.10;;;;;;5119839;27;20134;-80
2024/01/01 01:35:07;;;;;;;53.17;35.25;;;7.50;92.90;;;;;;5119988;27;20054;-80
2024/01/01 01:37:33;;;;;;;62.92;40.08;;;7.50;92.90;;;;;;5137206;27;20042;-79
2024/01/01 01:39:59;;;;;;;70.70;46.25;;;7.50;93.10;;;;;;5120359;27;20042;-80
2024/01/01 01:42:24;;;;;;;66.57;44.35;;;7.50;93.30;;;;;;5137158;27;20039;-78
2024/01/01 01:44:50;;;;;;;61.63;43.15;;;7.40;93.60;;;;;;5119764;27;20075;-79
2024/01/01 01:47:16;;;;;;;67.90;44.00;;;7.40;93.80;;;;;;5103116;27;20487;-80
2024/01/01 01:49:42;;;;;;;52.00;36.03;;;7.30;94.10;;;;;;5136916;27;20050;-79
2024/01/01 01:52:09;;;;;;;63.55;41.42;;;7.30;94.40;;;;;;5136850;27;20036;-79
2024/01/01 01:54:36;;;;;;;55.13;38.70;;;7.40;94.00;;;;;;5137141;27;20117;-78
2024/01/01 01:57:04;;;;;;;61.28;42.47;;;7.30;94.40;;;;;;5119763;27;20067;-79
2024/01/01 01:59:30;;;;;;;53.33;37.78;;;7.30;94.50;;;;;;5120342;27;20042;-81
2024/01/01 02:01:57;;;;;;;55.00;38.58;;;7.30;94.50;;;;;;5137372;27;20038;-80
2024/01/01 02:04:24;;;;;;;57.00;38.67;;;7.30;94.60;;;;;;5119681;27;20035;-80
2024/01/01 02:06:50;;;;;;;57.22;37.63;;;7.20;94.90;;;;;;5136821;27;20368;-80
2024/01/01 02:09:16;;;;;;;48.60;31.95;;;7.20;94.60;;;;;;5119418;27;20042;-80
2024/01/01 02:11:42;;;;;;;57.58;38.35;;;7.20;94.60;;;;;;5136412;27;20544;-80
2024/01/01 02:14:13;;;;;;;52.38;35.17;;;7.10;95.10;;;;;;5119327;27;20035;-80
2024/01/01 02:16:39;;;;;;;49.60;34.05;;;7.10;95.40;;;;;;5136752;27;20082;-80
2024/01/01 02:19:19;;;;;;;51.42;32.35;;;7.10;95.60;;;;;;5119786;27;20039;-79
2024/01/01 02:21:45;;;;;;;44.95;30.20;;;7.10;95.50;;;;;;5136989;27;20074;-81
2024/01/01 02:24:11;;;;;;;46.22;29.85;;;7.10;95.70;;;;;;5136392;27;20544;-80
2024/01/01 02:26:36;;;;;;;39.75;25.23;;;7.00;95.80;;;;;;5119089;27;20039;-80
2024/01/01 02:29:02;;;;;;;44.20;28.67;;;7.00;95.70;;;;;;5119144;27;20071;-80
2024/01/01 02:31:28;;;;;;;38.28;25.73;;;7.00;95.80;;;;;;5101606;27;20047;-80
2024/01/01 02:33:53;;;;;;;38.90;23.98;;;7.10;95.40;;;;;;5118943;27;20039;-80
2024/01/01 02:36:19;;;;;;;45.88;29.85;;;7.00;95.60;;;;;;5102023;27;20403;-80
2024/01/01 02:38:45;;;;;;;60.63;32.97;;;7.00;95.60;;;;;;5135816;27;20042;-80
2024/01/01 02:41:10;;;;;;;60.88;33.50;;;7.00;95.60;;;;;;5135956;27;20406;-79
2024/01/01 02:43:36;;;;;;;60.17;33.35;;;7.00;95.60;;;;;;5119303;27;20099;-80
2024/01/01 02:46:02;;;;;;;46.45;24.73;;;7.00;95.80;;;;;;5118614;27;20041;-80
2024/01/01 02:48:28;;;;;;;50.72;27.33;;;7.00;95.90;;;;;;5118790;27;20035;-79
2024/01/01 02:50:53;;;;;;;53.92;31.23;;;7.00;95.90;;;;;;5118548;27;20130;-80
2024/01/01 02:53:19;;;;;;;50.65;28.95;;;7.00;96.00;;;;;;5118891;27;20056;-80
2024/01/01 02:55:45;;;;;;;55.95;29.45;;;7.00;95.80;;;;;;5118469;27;20035;-79
2024/01/01 02:58:11;;;;;;;43.40;24.20;;;7.00;95.80;;;;;;5135324;27;20437;-80
2024/01/01 03:00:37;;;;;;;45.20;24.48;;;7.00;95.80;;;;;;5118450;27;20092;-80
2024/01/01 03:03:03;;;;;;;68.35;34.97;;;7.10;95.70;;;;;;5118295;27;20391;-81
2024/01/01 03:05:28;;;;;;;27.02;18.35;;;7.10;95.60;;;;;;5135681;27;20043;-79
2024/01/01 03:07:54;;;;;;;47.70;24.63;;;7.10;95.80;;;;;;5118612;27;20054;-79
2024/01/01 03:10:20;;;;;;;94.45;42.55;;;7.10;95.80;;;;;;5118740;27;20421;-80
2024/01/01 03:12:46;;;;;;;46.72;22.35;;;7.10;96.00;;;;;;5135405;27;20505;-81
2024/01/01 03:15:12;;;;;;;44.95;24.85;;;7.10;95.80;;;;;;5118865;27;20046;-80
2024/01/01 03:17:37;;;;;;;38.97;20.13;;;7.10;96.00;;;;;;5118612;27;20043;-79
2024/01/01 03:20:06;;;;;;;30.42;18.42;;;7.10;96.10;;;;;;5136221;27;20471;-79
2024/01/01 03:22:32;;;;;;;23.77;13.95;;;7.10;96.00;;;;;;5118966;27;20115;-81
2024/01/01 03:24:58;;;;;;;41.75;22.45;;;7.10;96.10;;;;;;5101297;27;20487;-80
2024/01/01 03:27:23;;;;;;;31.67;15.88;;;7.10;96.10;;;;;;5135275;27;20042;-81
2024/01/01 03:29:49;;;;;;;28.92;15.65;;;7.10;96.00;;;;;;5101463;27;20126;-81
2024/01/01 03:32:15;;;;;;;33.25;14.73;;;7.10;96.10;;;;;;5118993;27;20122;-80
2024/01/01 03:34:43;;;;;;;24.05;13.90;;;7.10;96.10;;;;;;5118459;27;20046;-79
2024/01/01 03:37:08;;;;;;;24.60;11.95;;;7.10;96.10;;;;;;5134794;27;20039;-79
2024/01/01 03:39:34;;;;;;;22.90;13.25;;;7.10;96.10;;;;;;5134963;27;20157;-80
2024/01/01 03:42:00;;;;;;;22.90;10.73;;;7.10;96.10;;;;;;5100818;27;20100;-79
2024/01/01 03:44:25;;;;;;;24.88;13.85;;;7.10;96.20;;;;;;5116951;27;20042;-79
2024/01/01 03:46:51;;;;;;;19.48;11.38;;;7.10;96.30;;;;;;5083615;27;20062;-81
2024/01/01 03:49:17;;;;;;;16.75;9.38;;;7.10;96.20;;;;;;5134537;27;20035;-81
2024/01/01 03:51:43;;;;;;;17.95;10.25;;;7.10;96.20;;;;;;5118045;27;20114;-79
2024/01/01 03:54:08;;;;;;;18.88;10.40;;;7.10;96.40;;;;;;5117657;27;20042;-80
2024/01/01 03:56:34;;;;;;;23.77;9.70;;;7.10;96.40;;;;;;5134473;27;20042;-79
2024/01/01 03:58:59;;;;;;;15.75;8.35;;;7.10;96.40;;;;;;5100402;27;20043;-79
2024/01/01 04:01:26;;;;;;;23.85;9.38;;;7.10;96.50;;;;;;5117567;27;20141;-79
2024/01/01 04:03:53;;;;;;;23.65;8.60;;;7.00;96.70;;;;;;5134245;27;20039;-80
2024/01/01 04:06:18;;;;;;;17.40;7.47;;;7.10;96.60;;;;;;5117376;27;20043;-80
2024/01/01 04:08:44;;;;;;;16.15;6.18;;;7.00;96.80;;;;;;5117062;27;20453;-80
2024/01/01 04:11:09;;;;;;;22.65;8.65;;;7.10;97.00;;;;;;5082817;27;20071;-79
2024/01/01 04:13:35;;;;;;;12.98;6.00;;;7.00;97.00;;;;;;5117280;27;20039;-79
2024/01/01 04:16:02;;;;;;;13.45;6.85;;;7.00;97.00;;;;;;5117230;27;20035;-79
2024/01/01 04:18:27;;;;;;;12.73;5.85;;;7.00;96.90;;;;;;5134117;27;20045;-79
2024/01/01 04:20:53;;;;;;;18.80;6.32;;;7.00;96.90;;;;;;5117339;27;20042;-80
2024/01/01 04:23:19;;;;;;;10.00;6.07;;;7.00;96.80;;;;;;5117260;27;20126;-79
2024/01/01 04:25:44;;;;;;;10.25;5.43;;;7.00;97.00;;;;;;5099955;27;20083;-79
2024/01/01 04:28:10;;;;;;;9.00;3.97;;;7.00;97.10;;;;;;5099803;27;20506;-80
2024/01/01 04:30:36;;;;;;;7.78;4.90;;;7.00;96.80;;;;;;5099644;27;20054;-80
2024/01/01 04:33:01;;;;;;;12.85;5.60;;;7.00;97.10;;;;;;5116693;27;20047;-80
2024/01/01 04:35:28;;;;;;;13.02;5.07;;;7.00;97.10;;;;;;5117044;27;20099;-79
2024/01/01 04:37:54;;;;;;;15.13;5.63;;;7.00;97.10;;;;;;5116578;27;20042;-81
2024/01/01 04:40:20;;;;;;;10.90;3.20;;;7.00;97.10;;;;;;5133905;27;20074;-80
2024/01/01 04:42:48;;;;;;;6.10;2.38;;;7.00;96.80;;;;;;5099799;27;20074;-81
2024/01/01 04:45:14;;;;;;;6.50;2.00;;;7.00;96.60;;;;;;5100609;27;20038;-81
2024/01/01 04:47:40;;;;;;;5.80;2.38;;;7.00;96.50;;;;;;5133547;27;20483;-80
2024/01/01 04:50:07;;;;;;;3.40;1.52;;;7.00;96.70;;;;;;5099872;27;20091;-80
2024/01/01 04:52:32;;;;;;;3.20;1.15;;;7.00;96.40;;;;;;5099896;27;20035;-81
2024/01/01 04:54:58;;;;;;;2.40;1.38;;;7.00;96.30;;;;;;5116159;27;20043;-79
2024/01/01 04:57:24;;;;;;;2.30;1.42;;;7.00;96.30;;;;;;5133943;27;20102;-80
2024/01/01 04:59:49;;;;;;;4.97;1.63;;;6.90;96.20;;;;;;5116369;27;20066;-79
2024/01/01 05:02:15;;;;;;;6.50;2.08;;;6.90;96.20;;;;;;5116657;27;20147;-79
2024/01/01 05:04:41;;;;;;;4.60;2.05;;;6.80;96.20;;;;;;5133275;27;20054;-79
2024/01/01 05:07:07;;;;;;;4.97;1.88;;;6.80;96.30;;;;;;5133341;27;20042;-81
2024/01/01 05:09:32;;;;;;;4.65;1.33;;;6.80;96.40;;;;;;5134083;27;20042;-81
2024/01/01 05:11:58;;;;;;;5.22;1.20;;;6.80;96.30;;;;;;5099163;28;20034;-80
2024/01/01 05:14:24;;;;;;;4.80;1.67;;;6.90;96.20;;;;;;5133203;27;20084;-79
2024/01/01 05:16:50;;;;;;;5.95;1.67;;;6.90;96.10;;;;;;5116741;27;20114;-80
2024/01/01 05:19:16;;;;;;;4.22;1.83;;;6.90;96.00;;;;;;5116347;28;20111;-80
2024/01/01 05:21:42;;;;;;;9.27;4.47;;;6.90;96.00;;;;;;5098781;28;20135;-80
2024/01/01 05:24:07;;;;;;;6.97;3.10;;;6.90;96.10;;;;;;5116033;28;20478;-81
2024/01/01 05:26:33;;;;;;;9.30;3.00;;;6.90;96.30;;;;;;5099170;28;20043;-82
2024/01/01 05:28:59;;;;;;;9.80;3.25;;;7.00;96.30;;;;;;5099134;28;20047;-79
2024/01/01 05:31:24;;;;;;;11.52;4.53;;;7.00;96.50;;;;;;5115708;28;20127;-79
2024/01/01 05:33:50;;;;;;;13.68;4.65;;;7.00;96.70;;;;;;5133226;28;20043;-81
2024/01/01 05:36:16;;;;;;;12.20;4.30;;;7.10;96.80;;;;;;5116052;28;20372;-79
2024/01/01 05:38:42;;;;;;;18.52;4.70;;;7.10;96.90;;;;;;5099447;28;20039;-79
2024/01/01 05:41:11;;;;;;;15.80;4.22;;;7.10;96.80;;;;;;5116450;28;20043;-79
2024/01/01 05:43:37;;;;;;;13.65;3.78;;;7.10;96.90;;;;;;5133345;28;20127;-80
2024/01/01 05:46:03;;;;;;;12.18;3.60;;;7.10;97.00;;;;;;5133105;28;20444;-79
2024/01/01 05:48:28;;;;;;;13.27;3.70;;;7.10;97.00;;;;;;5133278;28;20053;-79
2024/01/01 05:50:54;;;;;;;18.10;3.40;;;7.20;96.90;;;;;;5133028;28;20062;-79
2024/01/01 05:53:20;;;;;;;14.38;4.18;;;7.20;97.00;;;;;;5116054;28;20099;-79
2024/01/01 05:55:46;;;;;;;10.15;3.05;;;7.20;96.90;;;;;;5116166;28;20043;-80
2024/01/01 05:58:12;;;;;;;13.48;3.00;;;7.10;96.80;;;;;;5116009;28;20046;-79
2024/01/01 06:00:39;;;;;;;15.35;3.03;;;7.20;96.80;;;;;;5099757;28;20035;-80
2024/01/01 06:03:04;;;;;;;10.98;2.53;;;7.20;96.70;;;;;;5133025;28;20686;-79
2024/01/01 06:05:35;;;;;;;10.85;2.67;;;7.10;96.60;;;;;;5115921;28;20082;-80
2024/01/01 06:08:02;;;;;;;13.60;2.33;;;7.20;96.50;;;;;;5135360;27;20444;-80
2024/01/01 06:10:29;;;;;;;12.88;3.92;;;7.20;96.40;;;;;;5119909;27;20039;-81
2024/01/01 06:12:56;;;;;;;13.95;3.97;;;7.20;96.20;;;;;;5102539;27;20039;-81
2024/01/01 06:15:23;;;;;;;18.52;4.30;;;7.30;96.10;;;;;;5103273;27;20103;-79
2024/01/01 06:17:49;;;;;;;12.48;3.60;;;7.30;96.00;;;;;;5136560;27;20061;-80
2024/01/01 06:20:15;;;;;;;14.18;4.15;;;7.40;95.90;;;;;;5102887;27;20042;-79
2024/01/01 06:22:41;;;;;;;15.77;3.80;;;7.40;95.90;;;;;;5102724;27;20509;-80
2024/01/01 06:25:09;;;;;;;12.75;3.15;;;7.30;96.10;;;;;;5119638;27;20065;-79
2024/01/01 06:27:34;;;;;;;15.38;5.18;;;7.30;96.20;;;;;;5119106;27;20122;-79
2024/01/01 06:30:00;;;;;;;19.40;4.70;;;7.30;96.40;;;;;;5118436;27;20172;-80
2024/01/01 06:32:26;;;;;;;15.27;4.40;;;7.30;96.40;;;;;;5118400;27;20055;-79
2024/01/01 06:34:51;;;;;;;7.97;2.55;;;7.40;96.40;;;;;;5101747;27;20039;-80
2024/01/01 06:37:17;;;;;;;5.93;1.02;;;7.50;95.90;;;;;;5118964;27;20126;-79
2024/01/01 06:39:43;;;;;;;3.30;0.50;;;7.30;94.50;;;;;;5135952;27;20035;-82
2024/01/01 06:42:08;;;;;;;5.60;0.57;;;7.10;94.00;;;;;;5136156;27;20047;-80
2024/01/01 06:44:34;;;;;;;1.38;0.50;;;7.00;93.90;;;;;;5118905;27;20039;-82
2024/01/01 06:47:00;;;;;;;1.48;0.38;;;6.80;94.00;;;;;;5136334;27;20035;-80
2024/01/01 06:49:25;;;;;;;6.75;0.80;;;6.80;93.90;;;;;;5102351;27;20131;-79
2024/01/01 06:51:51;;;;;;;4.68;0.80;;;6.70;94.10;;;;;;5101750;27;20035;-81
2024/01/01 06:54:17;;;;;;;2.35;1.17;;;6.60;94.40;;;;;;5118899;27;20077;-80
2024/01/01 06:56:43;;;;;;;4.88;0.82;;;6.60;94.60;;;;;;5135728;27;20035;-79
2024/01/01 06:59:12;;;;;;;2.35;0.68;;;6.60;94.70;;;;;;5118548;27;20047;-81
2024/01/01 07:01:38;;;;;;;5.85;0.90;;;6.60;95.10;;;;;;5118573;27;20076;-80
2024/01/01 07:04:03;;;;;;;7.47;1.15;;;6.60;95.10;;;;;;5084494;27;20077;-79
2024/01/01 07:06:29;;;;;;;3.50;0.70;;;6.60;95.10;;;;;;5135414;27;20125;-80
2024/01/01 07:08:55;;;;;;;5.85;1.30;;;6.60;95.30;;;;;;5118217;27;20036;-80
2024/01/01 07:11:21;;;;;;;4.05;1.10;;;6.70;95.40;;;;;;5135620;27;20092;-80
2024/01/01 07:13:47;;;;;;;6.53;1.20;;;6.80;95.40;;;;;;5118288;27;20091;-79
2024/01/01 07:16:13;;;;;;;5.25;1.13;;;6.80;95.40;;;;;;5118596;27;20039;-79
2024/01/01 07:18:38;;;;;;;7.43;1.25;;;6.80;95.40;;;;;;5116959;28;20034;-80
2024/01/01 07:21:06;;;;;;;9.93;1.50;;;6.80;95.40;;;;;;5135278;27;20066;-81
2024/01/01 07:23:32;;;;;;;4.82;1.00;;;6.70;95.70;;;;;;5118256;27;20043;-81
2024/01/01 07:25:58;;;;;;;7.90;1.38;;;6.80;95.80;;;;;;5117819;27;20127;-80
2024/01/01 07:28:25;;;;;;;11.13;2.33;;;6.80;95.90;;;;;;5135659;27;20089;-80
2024/01/01 07:30:56;;;;;;;6.05;1.95;;;6.90;95.80;;;;;;5135421;27;20051;-79
2024/01/01 07:33:21;;;;;;;8.02;2.05;;;6.90;95.90;;;;;;5118523;27;20118;-79
2024/01/01 07:35:47;;;;;;;5.55;1.73;;;6.90;96.00;;;;;;5101173;27;20456;-80
2024/01/01 07:38:13;;;;;;;10.55;1.73;;;6.90;95.80;;;;;;5135609;27;20453;-80
2024/01/01 07:40:38;;;;;;;11.18;3.28;;;6.90;95.90;;;;;;5135164;27;20047;-81
2024/01/01 07:43:04;;;;;;;11.82;2.22;;;7.00;95.90;;;;;;5118095;27;20041;-81
2024/01/01 07:45:30;;;;;;;9.15;2.00;;;7.00;95.80;;;;;;5135104;27;20039;-80
2024/01/01 07:47:56;;;;;;;7.32;2.47;;;7.00;95.90;;;;;;5135367;27;20078;-80
2024/01/01 07:50:21;;;;;;;8.05;2.20;;;6.90;95.90;;;;;;5134880;27;20042;-80
2024/01/01 07:52:47;;;;;;;9.88;1.90;;;6.90;96.00;;;;;;5117784;27;20483;-80
2024/01/01 07:55:13;;;;;;;11.38;2.83;;;6.90;96.10;;;;;;5134585;27;20046;-80
2024/01/01 07:57:39;;;;;;;9.48;2.50;;;6.90;96.10;;;;;;5117898;27;20043;-80
2024/01/01 08:00:09;;;;;;;6.88;1.85;;;6.90;96.20;;;;;;5135031;27;20043;-80
2024/01/01 08:02:36;;;;;;;13.45;1.95;;;7.00;96.30;;;;;;5134469;27;20172;-80
2024/01/01 08:05:02;;;;;;;11.02;1.90;;;7.00;96.00;;;;;;5134483;27;20349;-80
2024/01/01 08:07:28;;;;;;;11.07;2.30;;;7.00;95.70;;;;;;5100127;27;20060;-80
2024/01/01 08:09:53;;;;;;;10.88;2.42;;;7.00;95.70;;;;;;5117181;27;20401;-79
2024/01/01 08:12:19;;;;;;;11.88;2.83;;;6.90;95.60;;;;;;5134209;27;20047;-81
2024/01/01 08:14:44;;;;;;;9.18;2.05;;;7.00;95.60;;;;;;5116790;27;20035;-79
2024/01/01 08:17:11;;;;;;;11.45;2.95;;;7.00;95.60;;;;;;5117338;27;20063;-80
2024/01/01 08:19:36;;;;;;;8.68;2.15;;;7.10;95.60;;;;;;5129631;27;20352;-80
2024/01/01 08:22:03;;;;;;;8.43;2.75;;;7.10;95.70;;;;;;5133802;27;20076;-79
2024/01/01 08:24:28;;;;;;;7.18;1.95;;;7.10;95.50;;;;;;5116513;27;20088;-80
2024/01/01 08:26:54;;;;;;;5.70;1.63;;;7.20;94.80;;;;;;5116582;27;20043;-79
2024/01/01 08:29:19;;;;;;;6.00;1.60;;;7.10;94.60;;;;;;5133755;27;20037;-79
2024/01/01 08:31:45;;;;;;;5.72;1.50;;;7.10;94.50;;;;;;5133105;27;20058;-79
2024/01/01 08:34:11;;;;;;;7.05;1.58;;;7.10;94.80;;;;;;5133608;27;20630;-80
2024/01/01 08:36:36;;;;;;;7.28;1.60;;;7.10;94.80;;;;;;5116379;27;20046;-81
2024/01/01 08:39:03;;;;;;;9.95;2.00;;;7.10;94.70;;;;;;5079282;28;20039;-79
2024/01/01 08:41:29;;;;;;;8.30;2.13;;;7.00;94.70;;;;;;5096122;28;20043;-81
2024/01/01 08:43:57;;;;;;;5.97;1.95;;;7.10;94.90;;;;;;5062243;28;20050;-82
2024/01/01 08:46:24;;;;;;;7.53;1.42;;;7.00;95.10;;;;;;5112592;28;20043;-80
2024/01/01 08:48:51;;;;;;;6.57;2.22;;;7.00;95.30;;;;;;5112578;28;20043;-81
2024/01/01 08:51:18;;;;;;;6.65;1.70;;;7.00;95.40;;;;;;5111808;28;20580;-81
2024/01/01 08:53:43;;;;;;;12.63;2.30;;;7.00;95.40;;;;;;5112053;28;20042;-79
2024/01/01 08:56:09;;;;;;;5.93;2.10;;;7.00;95.40;;;;;;5094900;28;20043;-81
2024/01/01 08:58:35;;;;;;;5.13;1.60;;;7.00;95.50;;;;;;5094968;28;20035;-81
2024/01/01 09:01:01;;;;;;;5.00;1.30;;;7.00;95.50;;;;;;5111970;28;20080;-79
2024/01/01 09:03:29;;;;;;;8.68;2.00;;;7.00;95.40;;;;;;5111940;28;20036;-81
2024/01/01 09:05:57;;;;;;;5.35;1.40;;;7.10;95.20;;;;;;5095696;28;20047;-80
2024/01/01 09:08:24;;;;;;;11.90;1.95;;;7.30;95.20;;;;;;5078926;28;20050;-80
2024/01/01 09:10:50;;;;;;;6.85;1.95;;;7.20;95.00;;;;;;5112361;28;20040;-81
2024/01/01 09:13:16;;;;;;;7.97;2.25;;;7.30;95.10;;;;;;5095249;28;20549;-79
2024/01/01 09:15:42;;;;;;;7.82;2.40;;;7.30;95.10;;;;;;5095190;28;20031;-79
2024/01/01 09:18:07;;;;;;;11.48;2.13;;;7.30;95.10;;;;;;5095354;28;20092;-81
2024/01/01 09:20:34;;;;;;;11.13;2.72;;;7.30;95.20;;;;;;5095660;28;20426;-81
2024/01/01 09:23:00;;;;;;;6.50;2.30;;;7.30;95.40;;;;;;5112547;28;20506;-80
2024/01/01 09:25:25;;;;;;;13.95;3.35;;;7.40;95.30;;;;;;5111984;28;20181;-80
2024/01/01 09:27:52;;;;;;;11.60;2.35;;;7.40;95.40;;;;;;5095204;28;20069;-81
2024/01/01 09:30:18;;;;;;;11.93;3.25;;;7.50;95.20;;;;;;5112118;28;20044;-80
2024/01/01 09:32:44;;;;;;;11.40;2.72;;;7.60;95.10;;;;;;5111892;28;20052;-80
2024/01/01 09:35:09;;;;;;;13.98;3.55;;;7.60;95.10;;;;;;5095068;28;20124;-81
2024/01/01 09:37:37;;;;;;;12.88;2.83;;;7.60;95.10;;;;;;5095117;28;20031;-80
2024/01/01 09:40:03;;;;;;;13.70;2.90;;;7.60;95.00;;;;;;5094977;28;20046;-81
2024/01/01 09:42:29;;;;;;;9.70;2.55;;;7.60;95.00;;;;;;5079618;28;20066;-81
2024/01/01 09:44:55;;;;;;;15.30;3.60;;;7.70;95.10;;;;;;5082317;28;20448;-81
2024/01/01 09:47:21;;;;;;;14.45;3.20;;;7.70;94.90;;;;;;5116232;28;20048;-81
2024/01/01 09:49:46;;;;;;;12.43;3.20;;;7.80;94.90;;;;;;5099669;28;20040;-83
2024/01/01 09:52:16;;;;;;;11.68;3.33;;;7.70;94.80;;;;;;5098859;28;20031;-80
2024/01/01 09:54:42;;;;;;;19.13;3.92;;;7.80;94.80;;;;;;5116102;28;20484;-80
2024/01/01 09:57:07;;;;;;;15.23;3.53;;;7.80;94.50;;;;;;5099241;28;20089;-81
2024/01/01 09:59:38;;;;;;;10.65;3.53;;;7.80;94.60;;;;;;5116101;28;20051;-81
2024/01/01 10:02:10;;;;;;;17.52;2.97;;;7.80;94.70;;;;;;5116265;28;20027;-81
2024/01/01 10:04:36;;;;;;;14.73;3.42;;;7.90;94.40;;;;;;5116047;28;20027;-81
2024/01/01 10:07:02;;;;;;;15.82;3.53;;;7.90;94.50;;;;;;5098748;28;20040;-81
2024/01/01 10:09:28;;;;;;;19.52;3.50;;;8.00;94.30;;;;;;5098923;28;20050;-82
2024/01/01 10:12:11;;;;;;;14.07;3.40;;;8.00;93.90;;;;;;5115472;28;20043;-80
2024/01/01 10:14:47;;;;;;;14.95;3.63;;;8.10;93.60;;;;;;5115753;28;20118;-79
2024/01/01 10:17:14;;;;;;;18.02;3.13;;;8.10;93.30;;;;;;5115575;28;20043;-80
2024/01/01 10:19:50;;;;;;;15.02;3.03;;;8.10;92.80;;;;;;5115458;28;20104;-79
2024/01/01 10:22:19;;;;;;;14.23;3.40;;;8.20;92.40;;;;;;5098648;28;20040;-80
2024/01/01 10:24:49;;;;;;;14.95;3.45;;;8.20;92.30;;;;;;5098969;28;20082;-79
2024/01/01 10:27:19;;;;;;;13.98;3.08;;;8.20;91.80;;;;;;5115234;28;20028;-80
2024/01/01 10:29:49;;;;;;;12.25;4.22;;;8.20;91.80;;;;;;5115447;28;20149;-81
2024/01/01 10:32:19;;;;;;;17.73;3.25;;;8.20;91.60;;;;;;5114964;28;20407;-81
2024/01/01 10:34:46;;;;;;;16.35;2.40;;;8.30;91.30;;;;;;5098196;28;20081;-81
2024/01/01 10:37:14;;;;;;;14.05;3.88;;;8.20;91.20;;;;;;5115000;28;20035;-81
2024/01/01 10:39:41;;;;;;;13.88;3.33;;;8.30;91.00;;;;;;5115194;28;20038;-80
2024/01/01 10:42:09;;;;;;;16.80;3.72;;;8.20;91.20;;;;;;5098140;28;20475;-80
2024/01/01 10:44:35;;;;;;;19.00;5.45;;;8.30;91.20;;;;;;5115220;28;20557;-80
2024/01/01 10:47:11;;;;;;;17.10;4.35;;;8.20;91.40;;;;;;5098085;28;20067;-79
2024/01/01 10:49:49;;;;;;;15.93;4.57;;;8.20;91.50;;;;;;5098194;28;20047;-79
2024/01/01 10:52:38;;;;;;;17.70;5.25;;;8.20;91.30;;;;;;5114885;28;20048;-79
2024/01/01 10:55:31;;;;;;;20.27;5.10;;;8.20;91.40;;;;;;5114849;28;20043;-79
2024/01/01 10:58:44;;;;;;;18.10;4.50;;;8.30;91.50;;;;;;5115058;28;20032;-80
2024/01/01 11:01:15;;;;;;;12.30;3.50;;;8.20;91.30;;;;;;5083300;28;20055;-80
2024/01/01 11:03:46;;;;;;;16.92;3.63;;;8.20;91.30;;;;;;5097622;28;20044;-80
2024/01/01 11:06:29;;;;;;;12.23;2.38;;;8.20;91.30;;;;;;5114837;28;20031;-81
2024/01/01 11:08:56;;;;;;;12.18;2.10;;;8.00;89.80;;;;;;5114832;28;20085;-81
2024/01/01 11:11:35;;;;;;;12.18;3.15;;;8.00;89.70;;;;;;5114237;28;20043;-80
2024/01/01 11:14:01;;;;;;;18.27;3.80;;;7.90;89.90;;;;;;5098581;28;20039;-80
2024/01/01 11:16:50;;;;;;;13.23;3.05;;;7.90;90.50;;;;;;5080802;28;20031;-79
2024/01/01 11:19:36;;;;;;;14.73;3.88;;;7.90;91.20;;;;;;5114553;28;20054;-81
2024/01/01 11:22:20;;;;;;;12.70;3.13;;;8.00;91.40;;;;;;5097418;28;20051;-80
2024/01/01 11:24:47;;;;;;;16.17;3.78;;;8.00;91.40;;;;;;5114705;28;20047;-80
2024/01/01 11:27:26;;;;;;;10.02;2.90;;;8.00;91.60;;;;;;5114002;28;20039;-82
2024/01/01 11:29:52;;;;;;;17.30;5.90;;;8.10;91.60;;;;;;5097035;28;20050;-80
2024/01/01 11:32:19;;;;;;;15.15;5.65;;;8.10;91.60;;;;;;5113785;28;20044;-80
2024/01/01 11:35:02;;;;;;;15.52;4.78;;;8.10;91.50;;;;;;5114053;28;20051;-82
2024/01/01 11:37:27;;;;;;;11.77;3.08;;;8.10;91.70;;;;;;5113950;28;20036;-81
2024/01/01 11:40:05;;;;;;;15.40;5.85;;;8.10;91.20;;;;;;5097105;28;20047;-80
2024/01/01 11:42:31;;;;;;;16.27;6.55;;;8.10;91.10;;;;;;5113983;28;20035;-80
2024/01/01 11:45:17;;;;;;;12.52;2.70;;;8.10;90.80;;;;;;5113769;28;20050;-81
2024/01/01 11:47:43;;;;;;;19.38;3.25;;;8.30;90.30;;;;;;5113687;28;20036;-82
2024/01/01 11:50:11;;;;;;;10.82;3.50;;;8.20;90.30;;;;;;5096802;28;20048;-81
2024/01/01 11:52:37;;;;;;;9.70;2.50;;;8.20;90.50;;;;;;5097059;28;20177;-82
2024/01/01 11:55:03;;;;;;;15.73;4.32;;;8.20;90.30;;;;;;5096843;28;20122;-80
2024/01/01 11:57:29;;;;;;;16.67;3.97;;;8.20;90.10;;;;;;5096898;28;20102;-79
2024/01/01 11:59:55;;;;;;;13.50;3.30;;;8.30;90.10;;;;;;5096482;28;20046;-79
2024/01/01 12:02:22;;;;;;;11.02;2.50;;;8.30;90.30;;;;;;5096668;28;20391;-80
2024/01/01 12:04:50;;;;;;;12.88;3.33;;;8.30;90.10;;;;;;5095781;28;20114;-80
2024/01/01 12:07:30;;;;;;;12.32;3.30;;;8.30;90.00;;;;;;5113392;28;20092;-80
2024/01/01 12:10:07;;;;;;;11.45;2.83;;;8.30;89.90;;;;;;5113241;28;20043;-80
2024/01/01 12:12:38;;;;;;;25.55;4.15;;;8.30;89.80;;;;;;5113559;28;20387;-79
2024/01/01 12:15:21;;;;;;;12.65;3.15;;;8.40;89.70;;;;;;5096823;28;20032;-80
2024/01/01 12:17:52;;;;;;;12.10;2.75;;;8.50;89.60;;;;;;5113335;28;20123;-81
2024/01/01 12:20:22;;;;;;;15.13;3.05;;;8.40;89.80;;;;;;5113237;28;20043;-80
2024/01/01 12:22:48;;;;;;;16.10;3.42;;;8.30;89.80;;;;;;5113492;28;20118;-80
2024/01/01 12:25:19;;;;;;;9.25;2.67;;;8.30;89.40;;;;;;5113275;28;20579;-82
2024/01/01 12:28:03;;;;;;;14.25;3.15;;;8.30;89.60;;;;;;5096416;28;20143;-81
2024/01/01 12:30:30;;;;;;;8.55;3.05;;;8.30;89.60;;;;;;5113583;28;20048;-81
2024/01/01 12:32:57;;;;;;;18.02;4.15;;;8.30;89.50;;;;;;5096627;28;20138;-80
2024/01/01 12:35:23;;;;;;;14.77;3.38;;;8.20;89.70;;;;;;5113615;28;20123;-81
2024/01/01 12:37:49;;;;;;;12.77;3.70;;;8.30;89.70;;;;;;5113412;28;20067;-81
2024/01/01 12:40:15;;;;;;;12.27;2.83;;;8.30;89.80;;;;;;5113304;28;20035;-81
2024/01/01 12:42:41;;;;;;;14.65;2.75;;;8.30;89.50;;;;;;5113358;28;20126;-82
2024/01/01 12:45:07;;;;;;;13.82;3.35;;;8.30;89.50;;;;;;5096236;28;20042;-82
2024/01/01 12:47:33;;;;;;;13.27;3.50;;;8.20;89.90;;;;;;5096171;28;20046;-81